sensor_id;sensor_type;location;lat;lon;timestamp;P1;durP1;ratioP1;P2;durP2;ratioP2
60076;SDS011;45950;45.208;20.374;2022-11-04T00:05:07;43.75;;;28.02;;
60076;SDS011;45950;45.208;20.374;2022-11-04T00:07:34;50.20;;;29.02;;
60076;SDS011;45950;45.208;20.374;2022-11-04T00:10:18;47.78;;;28.65;;
60076;SDS011;45950;45.208;20.374;2022-11-04T00:13:05;46.75;;;27.70;;
60076;SDS011;45950;45.208;20.374;2022-11-04T00:15:34;46.72;;;28.20;;
60076;SDS011;45950;45.208;20.374;2022-11-04T00:21:22;54.03;;;27.10;;
60076;SDS011;45950;45.208;20.374;2022-11-04T00:24:07;52.90;;;29.38;;
60076;SDS011;45950;45.208;20.374;2022-11-04T00:26:52;48.53;;;26.48;;
60076;SDS011;45950;45.208;20.374;2022-11-04T00:29:36;51.03;;;26.38;;
60076;SDS011;45950;45.208;20.374;2022-11-04T00:32:03;54.53;;;28.05;;
60076;SDS011;45950;45.208;20.374;2022-11-04T00:34:47;62.47;;;31.33;;
60076;SDS011;45950;45.208;20.374;2022-11-04T00:37:15;52.92;;;29.17;;
60076;SDS011;45950;45.208;20.374;2022-11-04T00:39:41;57.20;;;30.95;;
60076;SDS011;45950;45.208;20.374;2022-11-04T00:42:08;58.67;;;30.45;;
60076;SDS011;45950;45.208;20.374;2022-11-04T00:44:34;61.90;;;29.33;;
60076;SDS011;45950;45.208;20.374;2022-11-04T00:47:01;64.55;;;33.42;;
60076;SDS011;45950;45.208;20.374;2022-11-04T00:49:27;69.30;;;34.10;;
60076;SDS011;45950;45.208;20.374;2022-11-04T00:51:54;66.15;;;33.58;;
60076;SDS011;45950;45.208;20.374;2022-11-04T00:54:22;64.97;;;35.83;;
60076;SDS011;45950;45.208;20.374;2022-11-04T00:56:49;75.43;;;37.10;;
60076;SDS011;45950;45.208;20.374;2022-11-04T00:59:17;79.80;;;40.13;;
60076;SDS011;45950;45.208;20.374;2022-11-04T01:01:44;82.15;;;37.80;;
60076;SDS011;45950;45.208;20.374;2022-11-04T01:04:11;82.05;;;41.03;;
60076;SDS011;45950;45.208;20.374;2022-11-04T01:06:37;72.10;;;37.20;;
60076;SDS011;45950;45.208;20.374;2022-11-04T01:09:05;74.10;;;36.80;;
60076;SDS011;45950;45.208;20.374;2022-11-04T01:11:33;69.13;;;34.25;;
60076;SDS011;45950;45.208;20.374;2022-11-04T01:14:00;73.55;;;37.05;;
60076;SDS011;45950;45.208;20.374;2022-11-04T01:16:27;85.20;;;39.53;;
60076;SDS011;45950;45.208;20.374;2022-11-04T01:18:53;77.00;;;37.75;;
60076;SDS011;45950;45.208;20.374;2022-11-04T01:21:20;76.80;;;38.38;;
60076;SDS011;45950;45.208;20.374;2022-11-04T01:23:47;77.75;;;37.90;;
60076;SDS011;45950;45.208;20.374;2022-11-04T01:26:14;82.07;;;39.10;;
60076;SDS011;45950;45.208;20.374;2022-11-04T01:28:42;82.07;;;39.25;;
60076;SDS011;45950;45.208;20.374;2022-11-04T01:31:09;90.38;;;41.55;;
60076;SDS011;45950;45.208;20.374;2022-11-04T01:33:36;79.22;;;38.90;;
60076;SDS011;45950;45.208;20.374;2022-11-04T01:36:03;86.43;;;40.47;;
60076;SDS011;45950;45.208;20.374;2022-11-04T01:38:40;91.20;;;43.85;;
60076;SDS011;45950;45.208;20.374;2022-11-04T01:41:07;80.18;;;38.40;;
60076;SDS011;45950;45.208;20.374;2022-11-04T01:43:45;86.38;;;40.15;;
60076;SDS011;45950;45.208;20.374;2022-11-04T01:46:16;86.90;;;41.28;;
60076;SDS011;45950;45.208;20.374;2022-11-04T01:48:45;89.38;;;40.17;;
60076;SDS011;45950;45.208;20.374;2022-11-04T01:51:12;91.28;;;41.58;;
60076;SDS011;45950;45.208;20.374;2022-11-04T01:53:40;90.38;;;40.83;;
60076;SDS011;45950;45.208;20.374;2022-11-04T01:56:08;93.30;;;42.53;;
60076;SDS011;45950;45.208;20.374;2022-11-04T01:58:37;79.68;;;38.75;;
60076;SDS011;45950;45.208;20.374;2022-11-04T02:01:06;74.13;;;36.58;;
60076;SDS011;45950;45.208;20.374;2022-11-04T02:03:34;78.32;;;39.10;;
60076;SDS011;45950;45.208;20.374;2022-11-04T02:06:02;73.90;;;37.53;;
60076;SDS011;45950;45.208;20.374;2022-11-04T02:08:38;86.63;;;43.35;;
60076;SDS011;45950;45.208;20.374;2022-11-04T02:11:06;91.05;;;40.45;;
60076;SDS011;45950;45.208;20.374;2022-11-04T02:13:33;88.53;;;40.75;;
60076;SDS011;45950;45.208;20.374;2022-11-04T02:16:01;81.10;;;39.72;;
60076;SDS011;45950;45.208;20.374;2022-11-04T02:18:37;93.18;;;43.17;;
60076;SDS011;45950;45.208;20.374;2022-11-04T02:21:12;90.25;;;41.63;;
60076;SDS011;45950;45.208;20.374;2022-11-04T02:29:25;90.22;;;43.10;;
60076;SDS011;45950;45.208;20.374;2022-11-04T02:31:56;87.68;;;42.97;;
60076;SDS011;45950;45.208;20.374;2022-11-04T02:34:28;94.50;;;41.28;;
60076;SDS011;45950;45.208;20.374;2022-11-04T02:37:01;91.53;;;42.80;;
60076;SDS011;45950;45.208;20.374;2022-11-04T02:39:33;88.53;;;40.23;;
60076;SDS011;45950;45.208;20.374;2022-11-04T02:42:03;91.28;;;43.13;;
60076;SDS011;45950;45.208;20.374;2022-11-04T02:44:36;81.25;;;39.08;;
60076;SDS011;45950;45.208;20.374;2022-11-04T02:47:04;86.55;;;37.97;;
60076;SDS011;45950;45.208;20.374;2022-11-04T02:49:33;82.43;;;40.58;;
60076;SDS011;45950;45.208;20.374;2022-11-04T02:52:04;79.22;;;39.00;;
60076;SDS011;45950;45.208;20.374;2022-11-04T02:54:32;86.43;;;41.55;;
60076;SDS011;45950;45.208;20.374;2022-11-04T02:57:02;80.82;;;38.22;;
60076;SDS011;45950;45.208;20.374;2022-11-04T02:59:32;79.97;;;38.20;;
60076;SDS011;45950;45.208;20.374;2022-11-04T03:02:02;77.75;;;39.72;;
60076;SDS011;45950;45.208;20.374;2022-11-04T03:04:30;73.13;;;36.78;;
60076;SDS011;45950;45.208;20.374;2022-11-04T03:06:58;85.63;;;39.13;;
60076;SDS011;45950;45.208;20.374;2022-11-04T03:09:26;89.43;;;41.15;;
60076;SDS011;45950;45.208;20.374;2022-11-04T03:11:54;89.35;;;39.67;;
60076;SDS011;45950;45.208;20.374;2022-11-04T03:17:19;84.97;;;40.22;;
60076;SDS011;45950;45.208;20.374;2022-11-04T03:19:48;84.13;;;40.45;;
60076;SDS011;45950;45.208;20.374;2022-11-04T03:22:18;82.57;;;40.97;;
60076;SDS011;45950;45.208;20.374;2022-11-04T03:24:46;79.10;;;39.53;;
60076;SDS011;45950;45.208;20.374;2022-11-04T03:27:15;83.85;;;41.28;;
60076;SDS011;45950;45.208;20.374;2022-11-04T03:29:47;84.05;;;40.75;;
60076;SDS011;45950;45.208;20.374;2022-11-04T03:32:17;83.97;;;38.85;;
60076;SDS011;45950;45.208;20.374;2022-11-04T03:34:49;88.80;;;42.92;;
60076;SDS011;45950;45.208;20.374;2022-11-04T03:37:15;86.97;;;42.25;;
60076;SDS011;45950;45.208;20.374;2022-11-04T03:39:42;84.35;;;38.70;;
60076;SDS011;45950;45.208;20.374;2022-11-04T03:42:09;81.43;;;40.17;;
60076;SDS011;45950;45.208;20.374;2022-11-04T03:44:46;82.78;;;38.97;;
60076;SDS011;45950;45.208;20.374;2022-11-04T03:47:13;81.18;;;40.00;;
60076;SDS011;45950;45.208;20.374;2022-11-04T03:49:40;81.15;;;39.65;;
60076;SDS011;45950;45.208;20.374;2022-11-04T03:52:08;76.32;;;39.55;;
60076;SDS011;45950;45.208;20.374;2022-11-04T03:54:34;82.30;;;39.47;;
60076;SDS011;45950;45.208;20.374;2022-11-04T03:57:05;82.90;;;38.95;;
60076;SDS011;45950;45.208;20.374;2022-11-04T03:59:46;77.93;;;40.38;;
60076;SDS011;45950;45.208;20.374;2022-11-04T04:02:17;85.95;;;39.42;;
60076;SDS011;45950;45.208;20.374;2022-11-04T04:04:47;67.95;;;35.55;;
60076;SDS011;45950;45.208;20.374;2022-11-04T04:07:20;78.28;;;38.28;;
60076;SDS011;45950;45.208;20.374;2022-11-04T04:09:53;67.03;;;36.05;;
60076;SDS011;45950;45.208;20.374;2022-11-04T04:12:23;77.32;;;36.70;;
60076;SDS011;45950;45.208;20.374;2022-11-04T04:14:53;72.05;;;35.85;;
60076;SDS011;45950;45.208;20.374;2022-11-04T04:17:22;69.10;;;35.75;;
60076;SDS011;45950;45.208;20.374;2022-11-04T04:19:51;71.60;;;35.35;;
60076;SDS011;45950;45.208;20.374;2022-11-04T04:22:20;67.68;;;33.35;;
60076;SDS011;45950;45.208;20.374;2022-11-04T04:24:50;74.50;;;36.38;;
60076;SDS011;45950;45.208;20.374;2022-11-04T04:27:35;65.07;;;33.35;;
60076;SDS011;45950;45.208;20.374;2022-11-04T04:30:04;64.18;;;33.38;;
60076;SDS011;45950;45.208;20.374;2022-11-04T04:32:32;60.92;;;33.72;;
60076;SDS011;45950;45.208;20.374;2022-11-04T04:35:00;62.78;;;32.85;;
60076;SDS011;45950;45.208;20.374;2022-11-04T04:37:45;59.93;;;31.50;;
60076;SDS011;45950;45.208;20.374;2022-11-04T04:40:14;61.92;;;33.00;;
60076;SDS011;45950;45.208;20.374;2022-11-04T04:42:59;60.35;;;31.38;;
60076;SDS011;45950;45.208;20.374;2022-11-04T04:45:47;63.95;;;34.80;;
60076;SDS011;45950;45.208;20.374;2022-11-04T04:51:17;62.45;;;32.55;;
60076;SDS011;45950;45.208;20.374;2022-11-04T04:53:45;64.03;;;33.63;;
60076;SDS011;45950;45.208;20.374;2022-11-04T04:56:11;69.32;;;34.42;;
60076;SDS011;45950;45.208;20.374;2022-11-04T04:58:44;61.78;;;33.17;;
60076;SDS011;45950;45.208;20.374;2022-11-04T05:01:11;63.08;;;34.88;;
60076;SDS011;45950;45.208;20.374;2022-11-04T05:03:37;61.75;;;33.83;;
60076;SDS011;45950;45.208;20.374;2022-11-04T05:06:04;55.78;;;32.92;;
60076;SDS011;45950;45.208;20.374;2022-11-04T05:08:31;63.25;;;32.90;;
60076;SDS011;45950;45.208;20.374;2022-11-04T05:11:14;62.50;;;33.05;;
60076;SDS011;45950;45.208;20.374;2022-11-04T05:13:41;70.97;;;35.95;;
60076;SDS011;45950;45.208;20.374;2022-11-04T05:16:08;74.63;;;39.35;;
60076;SDS011;45950;45.208;20.374;2022-11-04T05:18:40;98.35;;;51.10;;
60076;SDS011;45950;45.208;20.374;2022-11-04T05:21:08;68.80;;;40.53;;
60076;SDS011;45950;45.208;20.374;2022-11-04T05:23:36;66.63;;;34.85;;
60076;SDS011;45950;45.208;20.374;2022-11-04T05:26:02;59.97;;;33.28;;
60076;SDS011;45950;45.208;20.374;2022-11-04T05:28:30;71.07;;;36.35;;
60076;SDS011;45950;45.208;20.374;2022-11-04T05:31:00;65.03;;;37.15;;
60076;SDS011;45950;45.208;20.374;2022-11-04T05:33:27;58.75;;;33.67;;
60076;SDS011;45950;45.208;20.374;2022-11-04T05:35:54;63.58;;;34.00;;
60076;SDS011;45950;45.208;20.374;2022-11-04T05:38:20;61.60;;;31.58;;
60076;SDS011;45950;45.208;20.374;2022-11-04T05:40:52;60.28;;;32.53;;
60076;SDS011;45950;45.208;20.374;2022-11-04T05:43:19;59.70;;;32.90;;
60076;SDS011;45950;45.208;20.374;2022-11-04T05:45:47;51.15;;;30.98;;
60076;SDS011;45950;45.208;20.374;2022-11-04T05:48:13;57.25;;;32.10;;
60076;SDS011;45950;45.208;20.374;2022-11-04T05:50:40;53.83;;;31.25;;
60076;SDS011;45950;45.208;20.374;2022-11-04T05:53:15;57.70;;;32.25;;
60076;SDS011;45950;45.208;20.374;2022-11-04T05:55:42;57.95;;;32.92;;
60076;SDS011;45950;45.208;20.374;2022-11-04T05:58:09;50.38;;;28.75;;
60076;SDS011;45950;45.208;20.374;2022-11-04T06:00:41;51.00;;;31.05;;
60076;SDS011;45950;45.208;20.374;2022-11-04T06:03:09;56.80;;;32.00;;
60076;SDS011;45950;45.208;20.374;2022-11-04T06:05:35;51.42;;;30.58;;
60076;SDS011;45950;45.208;20.374;2022-11-04T06:08:02;53.65;;;31.20;;
60076;SDS011;45950;45.208;20.374;2022-11-04T06:10:29;51.90;;;31.23;;
60076;SDS011;45950;45.208;20.374;2022-11-04T06:12:55;57.85;;;32.53;;
60076;SDS011;45950;45.208;20.374;2022-11-04T06:15:22;56.80;;;30.25;;
60076;SDS011;45950;45.208;20.374;2022-11-04T06:17:49;58.20;;;31.23;;
60076;SDS011;45950;45.208;20.374;2022-11-04T06:20:18;54.80;;;31.90;;
60076;SDS011;45950;45.208;20.374;2022-11-04T06:22:44;57.20;;;32.08;;
60076;SDS011;45950;45.208;20.374;2022-11-04T06:25:11;56.90;;;31.65;;
60076;SDS011;45950;45.208;20.374;2022-11-04T06:27:37;57.08;;;30.08;;
60076;SDS011;45950;45.208;20.374;2022-11-04T06:30:04;49.40;;;31.15;;
60076;SDS011;45950;45.208;20.374;2022-11-04T06:32:31;54.53;;;31.42;;
60076;SDS011;45950;45.208;20.374;2022-11-04T06:34:58;52.20;;;28.75;;
60076;SDS011;45950;45.208;20.374;2022-11-04T06:37:26;47.35;;;28.38;;
60076;SDS011;45950;45.208;20.374;2022-11-04T06:39:52;53.22;;;28.92;;
60076;SDS011;45950;45.208;20.374;2022-11-04T06:42:19;49.72;;;30.45;;
60076;SDS011;45950;45.208;20.374;2022-11-04T06:44:46;52.17;;;31.30;;
60076;SDS011;45950;45.208;20.374;2022-11-04T06:47:12;81.10;;;47.17;;
60076;SDS011;45950;45.208;20.374;2022-11-04T06:49:39;125.65;;;67.65;;
60076;SDS011;45950;45.208;20.374;2022-11-04T06:52:05;112.75;;;54.72;;
60076;SDS011;45950;45.208;20.374;2022-11-04T06:54:33;108.60;;;52.42;;
60076;SDS011;45950;45.208;20.374;2022-11-04T06:57:00;87.20;;;45.97;;
60076;SDS011;45950;45.208;20.374;2022-11-04T06:59:27;93.80;;;53.80;;
60076;SDS011;45950;45.208;20.374;2022-11-04T07:04:56;50.30;;;28.98;;
60076;SDS011;45950;45.208;20.374;2022-11-04T07:07:23;61.78;;;36.47;;
60076;SDS011;45950;45.208;20.374;2022-11-04T07:09:51;55.50;;;32.35;;
60076;SDS011;45950;45.208;20.374;2022-11-04T07:12:17;56.58;;;34.83;;
60076;SDS011;45950;45.208;20.374;2022-11-04T07:14:46;51.45;;;29.92;;
60076;SDS011;45950;45.208;20.374;2022-11-04T07:17:12;43.20;;;25.10;;
60076;SDS011;45950;45.208;20.374;2022-11-04T07:19:39;44.40;;;27.08;;
60076;SDS011;45950;45.208;20.374;2022-11-04T07:22:06;45.65;;;26.30;;
60076;SDS011;45950;45.208;20.374;2022-11-04T07:24:32;52.30;;;26.60;;
60076;SDS011;45950;45.208;20.374;2022-11-04T07:27:00;42.60;;;25.65;;
60076;SDS011;45950;45.208;20.374;2022-11-04T07:29:27;44.03;;;27.00;;
60076;SDS011;45950;45.208;20.374;2022-11-04T07:31:54;44.03;;;26.92;;
60076;SDS011;45950;45.208;20.374;2022-11-04T07:34:20;51.60;;;27.23;;
60076;SDS011;45950;45.208;20.374;2022-11-04T07:36:47;51.55;;;27.15;;
60076;SDS011;45950;45.208;20.374;2022-11-04T07:39:13;44.58;;;26.13;;
60076;SDS011;45950;45.208;20.374;2022-11-04T07:41:40;47.83;;;25.50;;
60076;SDS011;45950;45.208;20.374;2022-11-04T07:44:10;49.20;;;26.83;;
60076;SDS011;45950;45.208;20.374;2022-11-04T07:46:36;49.22;;;26.85;;
60076;SDS011;45950;45.208;20.374;2022-11-04T07:49:03;44.58;;;25.70;;
60076;SDS011;45950;45.208;20.374;2022-11-04T07:51:30;44.70;;;24.83;;
60076;SDS011;45950;45.208;20.374;2022-11-04T07:54:03;54.42;;;32.70;;
60076;SDS011;45950;45.208;20.374;2022-11-04T07:56:30;45.25;;;28.50;;
60076;SDS011;45950;45.208;20.374;2022-11-04T07:58:56;51.55;;;30.98;;
60076;SDS011;45950;45.208;20.374;2022-11-04T08:01:26;36.63;;;25.52;;
60076;SDS011;45950;45.208;20.374;2022-11-04T08:03:53;49.53;;;26.80;;
60076;SDS011;45950;45.208;20.374;2022-11-04T08:06:20;43.60;;;26.70;;
60076;SDS011;45950;45.208;20.374;2022-11-04T08:08:46;55.03;;;35.45;;
60076;SDS011;45950;45.208;20.374;2022-11-04T08:11:14;72.30;;;44.08;;
60076;SDS011;45950;45.208;20.374;2022-11-04T08:13:41;51.58;;;32.17;;
60076;SDS011;45950;45.208;20.374;2022-11-04T08:16:09;46.85;;;30.50;;
60076;SDS011;45950;45.208;20.374;2022-11-04T08:18:38;48.33;;;28.25;;
60076;SDS011;45950;45.208;20.374;2022-11-04T08:21:05;39.47;;;24.38;;
60076;SDS011;45950;45.208;20.374;2022-11-04T08:23:32;40.20;;;24.35;;
60076;SDS011;45950;45.208;20.374;2022-11-04T08:25:59;45.53;;;26.13;;
60076;SDS011;45950;45.208;20.374;2022-11-04T08:28:26;47.20;;;27.30;;
60076;SDS011;45950;45.208;20.374;2022-11-04T08:30:54;44.00;;;24.42;;
60076;SDS011;45950;45.208;20.374;2022-11-04T08:33:21;44.00;;;24.80;;
60076;SDS011;45950;45.208;20.374;2022-11-04T08:35:50;41.20;;;24.35;;
60076;SDS011;45950;45.208;20.374;2022-11-04T08:38:16;44.38;;;27.33;;
60076;SDS011;45950;45.208;20.374;2022-11-04T08:40:43;41.88;;;25.33;;
60076;SDS011;45950;45.208;20.374;2022-11-04T08:43:10;49.03;;;28.15;;
60076;SDS011;45950;45.208;20.374;2022-11-04T08:45:37;38.85;;;23.42;;
60076;SDS011;45950;45.208;20.374;2022-11-04T08:48:04;42.83;;;24.65;;
60076;SDS011;45950;45.208;20.374;2022-11-04T08:50:31;50.15;;;25.92;;
60076;SDS011;45950;45.208;20.374;2022-11-04T08:52:59;48.80;;;27.58;;
60076;SDS011;45950;45.208;20.374;2022-11-04T08:55:27;48.65;;;30.63;;
60076;SDS011;45950;45.208;20.374;2022-11-04T08:57:53;44.50;;;23.52;;
60076;SDS011;45950;45.208;20.374;2022-11-04T09:00:20;39.55;;;24.05;;
60076;SDS011;45950;45.208;20.374;2022-11-04T09:02:47;47.72;;;25.23;;
60076;SDS011;45950;45.208;20.374;2022-11-04T09:05:13;37.47;;;22.10;;
60076;SDS011;45950;45.208;20.374;2022-11-04T09:07:40;41.20;;;25.20;;
60076;SDS011;45950;45.208;20.374;2022-11-04T09:10:09;34.13;;;21.40;;
60076;SDS011;45950;45.208;20.374;2022-11-04T09:12:35;44.63;;;25.23;;
60076;SDS011;45950;45.208;20.374;2022-11-04T09:15:02;60.15;;;33.97;;
60076;SDS011;45950;45.208;20.374;2022-11-04T09:17:30;50.65;;;28.80;;
60076;SDS011;45950;45.208;20.374;2022-11-04T09:19:56;51.63;;;31.20;;
60076;SDS011;45950;45.208;20.374;2022-11-04T09:22:23;40.45;;;25.52;;
60076;SDS011;45950;45.208;20.374;2022-11-04T09:24:49;35.75;;;22.13;;
60076;SDS011;45950;45.208;20.374;2022-11-04T09:27:17;32.10;;;21.45;;
60076;SDS011;45950;45.208;20.374;2022-11-04T09:29:47;36.58;;;21.67;;
60076;SDS011;45950;45.208;20.374;2022-11-04T09:32:13;35.42;;;20.23;;
60076;SDS011;45950;45.208;20.374;2022-11-04T09:34:40;36.78;;;21.83;;
60076;SDS011;45950;45.208;20.374;2022-11-04T09:37:07;40.67;;;22.67;;
60076;SDS011;45950;45.208;20.374;2022-11-04T09:39:33;38.90;;;21.95;;
60076;SDS011;45950;45.208;20.374;2022-11-04T09:42:09;39.80;;;22.77;;
60076;SDS011;45950;45.208;20.374;2022-11-04T09:44:45;36.53;;;23.50;;
60076;SDS011;45950;45.208;20.374;2022-11-04T09:47:13;37.28;;;21.13;;
60076;SDS011;45950;45.208;20.374;2022-11-04T09:49:41;36.17;;;20.55;;
60076;SDS011;45950;45.208;20.374;2022-11-04T09:52:12;35.47;;;20.55;;
60076;SDS011;45950;45.208;20.374;2022-11-04T09:54:42;34.05;;;20.30;;
60076;SDS011;45950;45.208;20.374;2022-11-04T09:57:12;36.72;;;22.33;;
60076;SDS011;45950;45.208;20.374;2022-11-04T09:59:39;34.05;;;20.88;;
60076;SDS011;45950;45.208;20.374;2022-11-04T10:02:14;34.72;;;20.92;;
60076;SDS011;45950;45.208;20.374;2022-11-04T10:04:47;34.75;;;20.17;;
60076;SDS011;45950;45.208;20.374;2022-11-04T10:07:20;31.70;;;21.50;;
60076;SDS011;45950;45.208;20.374;2022-11-04T10:09:51;33.88;;;18.92;;
60076;SDS011;45950;45.208;20.374;2022-11-04T10:12:22;31.80;;;18.90;;
60076;SDS011;45950;45.208;20.374;2022-11-04T10:14:54;38.38;;;22.15;;
60076;SDS011;45950;45.208;20.374;2022-11-04T10:17:32;36.30;;;22.05;;
60076;SDS011;45950;45.208;20.374;2022-11-04T10:20:07;47.83;;;31.58;;
60076;SDS011;45950;45.208;20.374;2022-11-04T10:22:40;31.73;;;20.30;;
60076;SDS011;45950;45.208;20.374;2022-11-04T10:25:09;32.58;;;19.15;;
60076;SDS011;45950;45.208;20.374;2022-11-04T10:27:39;35.88;;;19.77;;
60076;SDS011;45950;45.208;20.374;2022-11-04T10:30:12;37.78;;;21.35;;
60076;SDS011;45950;45.208;20.374;2022-11-04T10:32:43;35.95;;;21.08;;
60076;SDS011;45950;45.208;20.374;2022-11-04T10:35:13;34.47;;;21.60;;
60076;SDS011;45950;45.208;20.374;2022-11-04T10:37:41;36.90;;;21.60;;
60076;SDS011;45950;45.208;20.374;2022-11-04T10:40:14;29.95;;;20.05;;
60076;SDS011;45950;45.208;20.374;2022-11-04T10:42:42;36.45;;;19.85;;
60076;SDS011;45950;45.208;20.374;2022-11-04T10:45:09;33.92;;;19.67;;
60076;SDS011;45950;45.208;20.374;2022-11-04T10:47:38;35.75;;;20.10;;
60076;SDS011;45950;45.208;20.374;2022-11-04T10:50:19;34.63;;;20.67;;
60076;SDS011;45950;45.208;20.374;2022-11-04T10:52:47;35.75;;;21.58;;
60076;SDS011;45950;45.208;20.374;2022-11-04T10:55:17;34.92;;;22.23;;
60076;SDS011;45950;45.208;20.374;2022-11-04T10:57:48;35.95;;;22.70;;
60076;SDS011;45950;45.208;20.374;2022-11-04T11:05:46;39.65;;;20.70;;
60076;SDS011;45950;45.208;20.374;2022-11-04T11:08:24;37.00;;;19.75;;
60076;SDS011;45950;45.208;20.374;2022-11-04T11:13:55;31.90;;;19.45;;
60076;SDS011;45950;45.208;20.374;2022-11-04T11:16:24;78.40;;;43.72;;
60076;SDS011;45950;45.208;20.374;2022-11-04T11:19:06;122.55;;;73.47;;
60076;SDS011;45950;45.208;20.374;2022-11-04T11:21:35;43.60;;;28.75;;
60076;SDS011;45950;45.208;20.374;2022-11-04T11:24:12;34.63;;;19.65;;
60076;SDS011;45950;45.208;20.374;2022-11-04T11:26:38;37.88;;;21.67;;
60076;SDS011;45950;45.208;20.374;2022-11-04T11:29:07;28.05;;;18.33;;
60076;SDS011;45950;45.208;20.374;2022-11-04T11:31:36;34.97;;;18.58;;
60076;SDS011;45950;45.208;20.374;2022-11-04T11:34:04;50.60;;;34.45;;
60076;SDS011;45950;45.208;20.374;2022-11-04T11:36:32;31.20;;;17.95;;
60076;SDS011;45950;45.208;20.374;2022-11-04T11:39:02;29.35;;;17.88;;
60076;SDS011;45950;45.208;20.374;2022-11-04T11:41:30;28.63;;;18.73;;
60076;SDS011;45950;45.208;20.374;2022-11-04T11:43:58;36.50;;;18.95;;
60076;SDS011;45950;45.208;20.374;2022-11-04T11:46:27;29.67;;;17.38;;
60076;SDS011;45950;45.208;20.374;2022-11-04T11:48:54;25.48;;;17.42;;
60076;SDS011;45950;45.208;20.374;2022-11-04T11:51:25;30.90;;;17.55;;
60076;SDS011;45950;45.208;20.374;2022-11-04T11:56:35;31.35;;;17.30;;
60076;SDS011;45950;45.208;20.374;2022-11-04T11:59:11;30.73;;;17.75;;
60076;SDS011;45950;45.208;20.374;2022-11-04T12:01:43;28.30;;;17.30;;
60076;SDS011;45950;45.208;20.374;2022-11-04T12:04:11;29.23;;;18.75;;
60076;SDS011;45950;45.208;20.374;2022-11-04T12:06:39;31.30;;;18.58;;
60076;SDS011;45950;45.208;20.374;2022-11-04T12:09:15;32.50;;;19.63;;
60076;SDS011;45950;45.208;20.374;2022-11-04T12:11:47;36.30;;;18.40;;
60076;SDS011;45950;45.208;20.374;2022-11-04T12:14:15;29.15;;;18.23;;
60076;SDS011;45950;45.208;20.374;2022-11-04T12:16:44;31.52;;;20.73;;
60076;SDS011;45950;45.208;20.374;2022-11-04T12:19:18;31.27;;;20.48;;
60076;SDS011;45950;45.208;20.374;2022-11-04T12:21:53;34.45;;;19.13;;
60076;SDS011;45950;45.208;20.374;2022-11-04T12:24:25;27.95;;;17.38;;
60076;SDS011;45950;45.208;20.374;2022-11-04T12:26:55;30.08;;;19.00;;
60076;SDS011;45950;45.208;20.374;2022-11-04T12:29:34;27.33;;;18.23;;
60076;SDS011;45950;45.208;20.374;2022-11-04T12:34:32;30.67;;;18.05;;
60076;SDS011;45950;45.208;20.374;2022-11-04T12:37:07;31.35;;;19.13;;
60076;SDS011;45950;45.208;20.374;2022-11-04T12:39:47;31.83;;;17.45;;
60076;SDS011;45950;45.208;20.374;2022-11-04T12:42:16;27.20;;;16.65;;
60076;SDS011;45950;45.208;20.374;2022-11-04T12:44:45;26.77;;;15.85;;
60076;SDS011;45950;45.208;20.374;2022-11-04T12:47:19;30.85;;;15.70;;
60076;SDS011;45950;45.208;20.374;2022-11-04T12:49:52;49.55;;;18.27;;
60076;SDS011;45950;45.208;20.374;2022-11-04T12:52:26;86.70;;;48.42;;
60076;SDS011;45950;45.208;20.374;2022-11-04T12:55:05;81.55;;;47.53;;
60076;SDS011;45950;45.208;20.374;2022-11-04T12:57:37;45.45;;;26.25;;
60076;SDS011;45950;45.208;20.374;2022-11-04T13:00:07;50.22;;;26.80;;
60076;SDS011;45950;45.208;20.374;2022-11-04T13:02:36;65.97;;;38.40;;
60076;SDS011;45950;45.208;20.374;2022-11-04T13:05:05;43.83;;;28.33;;
60076;SDS011;45950;45.208;20.374;2022-11-04T13:07:35;75.60;;;32.90;;
60076;SDS011;45950;45.208;20.374;2022-11-04T13:10:04;69.50;;;30.45;;
60076;SDS011;45950;45.208;20.374;2022-11-04T13:12:32;37.42;;;20.70;;
60076;SDS011;45950;45.208;20.374;2022-11-04T13:15:04;32.10;;;19.42;;
60076;SDS011;45950;45.208;20.374;2022-11-04T13:17:34;32.45;;;20.20;;
60076;SDS011;45950;45.208;20.374;2022-11-04T13:20:02;31.95;;;20.33;;
60076;SDS011;45950;45.208;20.374;2022-11-04T13:22:31;31.90;;;18.98;;
60076;SDS011;45950;45.208;20.374;2022-11-04T13:25:00;29.73;;;17.52;;
60076;SDS011;45950;45.208;20.374;2022-11-04T13:27:30;28.25;;;15.48;;
60076;SDS011;45950;45.208;20.374;2022-11-04T13:30:01;33.10;;;17.40;;
60076;SDS011;45950;45.208;20.374;2022-11-04T13:32:32;25.48;;;15.60;;
60076;SDS011;45950;45.208;20.374;2022-11-04T13:35:00;30.48;;;15.68;;
60076;SDS011;45950;45.208;20.374;2022-11-04T13:37:30;26.77;;;15.93;;
60076;SDS011;45950;45.208;20.374;2022-11-04T13:39:58;29.23;;;15.45;;
60076;SDS011;45950;45.208;20.374;2022-11-04T13:42:35;26.63;;;16.38;;
60076;SDS011;45950;45.208;20.374;2022-11-04T13:45:08;25.13;;;14.77;;
60076;SDS011;45950;45.208;20.374;2022-11-04T13:47:41;24.67;;;14.90;;
60076;SDS011;45950;45.208;20.374;2022-11-04T13:50:15;27.05;;;16.13;;
60076;SDS011;45950;45.208;20.374;2022-11-04T13:52:52;27.50;;;15.38;;
60076;SDS011;45950;45.208;20.374;2022-11-04T13:55:19;30.77;;;18.67;;
60076;SDS011;45950;45.208;20.374;2022-11-04T13:57:50;34.35;;;18.42;;
60076;SDS011;45950;45.208;20.374;2022-11-04T14:00:18;29.70;;;17.58;;
60076;SDS011;45950;45.208;20.374;2022-11-04T14:02:48;35.80;;;19.85;;
60076;SDS011;45950;45.208;20.374;2022-11-04T14:08:08;41.22;;;23.25;;
60076;SDS011;45950;45.208;20.374;2022-11-04T14:10:41;46.45;;;23.40;;
60076;SDS011;45950;45.208;20.374;2022-11-04T14:15:58;27.77;;;15.98;;
60076;SDS011;45950;45.208;20.374;2022-11-04T14:18:27;28.50;;;16.52;;
60076;SDS011;45950;45.208;20.374;2022-11-04T14:21:02;28.92;;;15.18;;
60076;SDS011;45950;45.208;20.374;2022-11-04T14:23:29;27.75;;;15.38;;
60076;SDS011;45950;45.208;20.374;2022-11-04T14:25:57;25.70;;;14.75;;
60076;SDS011;45950;45.208;20.374;2022-11-04T14:28:25;22.73;;;13.68;;
60076;SDS011;45950;45.208;20.374;2022-11-04T14:30:53;24.20;;;13.20;;
60076;SDS011;45950;45.208;20.374;2022-11-04T14:33:32;22.48;;;13.68;;
60076;SDS011;45950;45.208;20.374;2022-11-04T14:36:16;33.65;;;19.13;;
60076;SDS011;45950;45.208;20.374;2022-11-04T14:38:51;64.75;;;35.60;;
60076;SDS011;45950;45.208;20.374;2022-11-04T14:41:19;49.05;;;29.88;;
60076;SDS011;45950;45.208;20.374;2022-11-04T14:43:47;39.88;;;23.85;;
60076;SDS011;45950;45.208;20.374;2022-11-04T14:46:16;28.20;;;18.27;;
60076;SDS011;45950;45.208;20.374;2022-11-04T14:48:46;36.63;;;20.17;;
60076;SDS011;45950;45.208;20.374;2022-11-04T14:51:19;36.53;;;21.00;;
60076;SDS011;45950;45.208;20.374;2022-11-04T14:53:48;36.10;;;21.23;;
60076;SDS011;45950;45.208;20.374;2022-11-04T14:56:16;45.30;;;27.48;;
60076;SDS011;45950;45.208;20.374;2022-11-04T14:58:50;111.05;;;55.10;;
60076;SDS011;45950;45.208;20.374;2022-11-04T15:01:25;80.72;;;40.63;;
60076;SDS011;45950;45.208;20.374;2022-11-04T15:03:55;82.93;;;42.40;;